createdAt,value
2023-04-18T00:00:18.427Z,100707.67
2023-04-18T00:01:17.925Z,100704.66
2023-04-18T00:02:18.079Z,100707.95
2023-04-18T00:03:18.329Z,100704.94
2023-04-18T00:04:18.519Z,100703.2
2023-04-18T00:05:18.116Z,100705.4
2023-04-18T00:06:17.996Z,100706.95
2023-04-18T00:07:18.044Z,100703.48
2023-04-18T00:08:18.043Z,100703.8
2023-04-18T00:09:18.104Z,100700.19
2023-04-18T00:10:18.054Z,100698.84
2023-04-18T00:11:18.100Z,100700.45
2023-04-18T00:12:18.085Z,100699.49
2023-04-18T00:13:18.163Z,100699.98
2023-04-18T00:14:18.212Z,100697.27
2023-04-18T00:15:18.344Z,100699.29
2023-04-18T00:16:18.154Z,100698.91
2023-04-18T00:17:18.274Z,100695.36
2023-04-18T00:18:18.223Z,100699.64
2023-04-18T00:19:18.198Z,100704.23
2023-04-18T00:20:18.359Z,100703.36
2023-04-18T00:21:18.256Z,100701.42
2023-04-18T00:22:18.248Z,100700.31
2023-04-18T00:23:18.300Z,100700.97
2023-04-18T00:24:18.263Z,100702.56
2023-04-18T00:25:18.718Z,100706.17
2023-04-18T00:26:18.347Z,100705.05
2023-04-18T00:27:18.653Z,100705.36
2023-04-18T00:28:18.395Z,100707.19
2023-04-18T00:29:18.387Z,100705.59
2023-04-18T00:30:18.423Z,100709.07
2023-04-18T00:31:18.469Z,100714.54
2023-04-18T00:32:18.490Z,100716.74
2023-04-18T00:33:18.387Z,100715.48
2023-04-18T00:34:18.469Z,100715.93
2023-04-18T00:35:19.400Z,100718.63
2023-04-18T00:36:18.516Z,100714.18
2023-04-18T00:37:18.482Z,100716.14
2023-04-18T00:38:18.533Z,100721.97
2023-04-18T00:39:18.627Z,100721.77
2023-04-18T00:40:18.672Z,100722.89
2023-04-18T00:41:19.083Z,100725.95
2023-04-18T00:42:18.539Z,100723.19
2023-04-18T00:43:18.687Z,100722.54
2023-04-18T00:44:18.682Z,100719.69
2023-04-18T00:45:18.659Z,100722.44
2023-04-18T00:46:18.688Z,100718.58
2023-04-18T00:47:18.645Z,100725.48
2023-04-18T00:48:18.678Z,100721.05
2023-04-18T00:49:18.827Z,100719.89
2023-04-18T00:50:19.395Z,100725.98
2023-04-18T00:51:19.120Z,100723.11
2023-04-18T00:52:18.995Z,100726.61
2023-04-18T00:53:18.769Z,100731.8
2023-04-18T00:54:19.023Z,100725.89
2023-04-18T00:55:18.973Z,100728.72
2023-04-18T00:56:19.121Z,100733.3
2023-04-18T00:57:18.836Z,100730.29
2023-04-18T00:58:18.859Z,100731.5
2023-04-18T00:59:18.932Z,100734.47
2023-04-18T01:00:18.916Z,100734.36
2023-04-18T01:01:18.953Z,100733.23
2023-04-18T01:02:19.382Z,100735.11
2023-04-18T01:03:19.076Z,100729.89
2023-04-18T01:04:19.466Z,100732.67
2023-04-18T01:05:19.116Z,100735.88
2023-04-18T01:06:19.040Z,100724.22
2023-04-18T01:07:19.113Z,100736.1
2023-04-18T01:08:20.869Z,100729.59
2023-04-18T01:09:19.738Z,100729.62
2023-04-18T01:10:19.636Z,100730.5
2023-04-18T01:11:19.276Z,100729.7
2023-04-18T01:12:19.043Z,100728.22
2023-04-18T01:13:19.880Z,100730.02
2023-04-18T01:14:19.566Z,100731.25
2023-04-18T01:15:19.072Z,100730.3
2023-04-18T01:16:19.196Z,100729.05
2023-04-18T01:17:19.278Z,100724.52
2023-04-18T01:18:19.271Z,100730.58
2023-04-18T01:19:19.174Z,100730.77
2023-04-18T01:20:21.294Z,100729.12
2023-04-18T01:21:19.412Z,100733.23
2023-04-18T01:22:19.780Z,100727.1
2023-04-18T01:23:19.660Z,100726.5
2023-04-18T01:24:19.234Z,100728.66
2023-04-18T01:25:19.444Z,100729.09
2023-04-18T01:26:19.695Z,100731.27
2023-04-18T01:27:19.374Z,100728.16
2023-04-18T01:28:20.284Z,100734.56
2023-04-18T01:29:19.471Z,100735.17
2023-04-18T01:30:19.480Z,100739.4
2023-04-18T01:31:19.435Z,100740.05
2023-04-18T01:32:19.516Z,100737.52
2023-04-18T01:33:19.407Z,100739.64
2023-04-18T01:34:19.494Z,100741.05
2023-04-18T01:35:19.520Z,100731.55
2023-04-18T01:36:19.473Z,100733.38
2023-04-18T01:37:19.486Z,100736.88
2023-04-18T01:38:19.504Z,100733.77
2023-04-18T01:39:19.496Z,100732.8
2023-04-18T01:40:19.502Z,100732.7
2023-04-18T01:41:19.524Z,100730.48
2023-04-18T01:42:19.483Z,100731.14
2023-04-18T01:43:19.556Z,100732.45
2023-04-18T01:44:19.559Z,100732.48
2023-04-18T01:45:19.943Z,100729.77
2023-04-18T01:46:19.657Z,100733.19
2023-04-18T01:47:19.662Z,100733.62
2023-04-18T01:48:19.640Z,100729.42
2023-04-18T01:49:19.637Z,100728.41
2023-04-18T01:50:19.825Z,100727.41
2023-04-18T01:51:19.939Z,100728.7
2023-04-18T01:52:19.749Z,100726.3
2023-04-18T01:53:19.711Z,100724.38
2023-04-18T01:54:19.743Z,100728.4
2023-04-18T01:55:19.776Z,100728.27
2023-04-18T01:56:19.755Z,100732.23
2023-04-18T01:57:19.925Z,100732.08
2023-04-18T01:58:19.811Z,100738.56
2023-04-18T01:59:19.822Z,100735.98
2023-04-18T02:00:20.414Z,100735.3
2023-04-18T02:01:19.959Z,100734.84
2023-04-18T02:02:20.191Z,100740.03
2023-04-18T02:03:20.184Z,100739.26
2023-04-18T02:04:19.986Z,100739.2
2023-04-18T02:05:19.921Z,100740.66
2023-04-18T02:06:19.964Z,100735.11
2023-04-18T02:07:19.906Z,100736.11
2023-04-18T02:08:19.977Z,100733.4
2023-04-18T02:09:20.137Z,100740.04
2023-04-18T02:10:20.447Z,100736.73
2023-04-18T02:11:20.070Z,100742.32
2023-04-18T02:12:19.963Z,100737.18
2023-04-18T02:13:20.080Z,100738.24
2023-04-18T02:14:20.052Z,100738.47
2023-04-18T02:15:20.180Z,100739.27
2023-04-18T02:16:20.188Z,100735.97
2023-04-18T02:17:22.908Z,100734.7
2023-04-18T02:18:20.200Z,100735.16
2023-04-18T02:19:20.106Z,100737.73
2023-04-18T02:20:20.310Z,100739.36
2023-04-18T02:21:20.131Z,100737.34
2023-04-18T02:22:20.137Z,100732.91
2023-04-18T02:23:20.249Z,100735.44
2023-04-18T02:24:20.216Z,100737.58
2023-04-18T02:25:20.429Z,100733.49
2023-04-18T02:26:20.256Z,100738.27
2023-04-18T02:27:20.269Z,100730.8
2023-04-18T02:28:20.321Z,100733.63
2023-04-18T02:29:20.258Z,100740.2
2023-04-18T02:30:20.732Z,100732.59
2023-04-18T02:31:20.316Z,100729.68
2023-04-18T02:32:20.400Z,100730.23
2023-04-18T02:33:20.374Z,100725.92
2023-04-18T02:34:20.424Z,100729
2023-04-18T02:35:20.468Z,100731.92
2023-04-18T02:36:20.384Z,100728.8
2023-04-18T02:37:20.427Z,100727.64
2023-04-18T02:38:20.416Z,100730.09
2023-04-18T02:39:20.781Z,100732.3
2023-04-18T02:40:20.524Z,100731.36
2023-04-18T02:41:20.499Z,100732.73
2023-04-18T02:42:20.487Z,100737.38
2023-04-18T02:43:20.562Z,100733.23
2023-04-18T02:44:20.612Z,100731.53
2023-04-18T02:45:20.750Z,100729.07
2023-04-18T02:46:20.541Z,100736.41
2023-04-18T02:47:20.545Z,100729.53
2023-04-18T02:48:20.696Z,100730.33
2023-04-18T02:49:20.624Z,100727.91
2023-04-18T02:50:20.800Z,100727.62
2023-04-18T02:51:20.655Z,100729.28
2023-04-18T02:52:20.685Z,100730.88
2023-04-18T02:53:21.128Z,100727.75
2023-04-18T02:54:21.181Z,100728.42
2023-04-18T02:55:21.438Z,100733.2
2023-04-18T02:56:21.400Z,100736.11
2023-04-18T02:57:21.224Z,100728.96
2023-04-18T02:58:21.385Z,100726.8
2023-04-18T02:59:21.297Z,100726.77
2023-04-18T03:00:21.405Z,100730.79
2023-04-18T03:01:21.381Z,100729.57
2023-04-18T03:02:21.375Z,100730.89
2023-04-18T03:03:21.913Z,100728.57
2023-04-18T03:04:21.403Z,100729.23
2023-04-18T03:05:21.770Z,100727.61
2023-04-18T03:06:21.368Z,100728.88
2023-04-18T03:07:21.494Z,100728.22
2023-04-18T03:08:21.469Z,100734.5
2023-04-18T03:09:21.484Z,100731.2
2023-04-18T03:10:21.463Z,100730.67
2023-04-18T03:11:21.489Z,100734.5
2023-04-18T03:12:21.575Z,100731.27
2023-04-18T03:13:21.520Z,100735.47
2023-04-18T03:14:21.491Z,100735.98
2023-04-18T03:15:21.569Z,100735.92
2023-04-18T03:16:21.887Z,100738.83
2023-04-18T03:17:21.643Z,100739.61
2023-04-18T03:18:21.587Z,100739.09
2023-04-18T03:19:21.532Z,100740.16
2023-04-18T03:20:21.644Z,100741.08
2023-04-18T03:21:21.661Z,100744.02
2023-04-18T03:22:21.605Z,100743.59
2023-04-18T03:23:21.707Z,100744.03
2023-04-18T03:24:21.672Z,100746.25
2023-04-18T03:25:21.824Z,100746.77
2023-04-18T03:26:22.451Z,100745.61
2023-04-18T03:27:21.686Z,100743.77
2023-04-18T03:28:21.686Z,100745.54
2023-04-18T03:29:21.741Z,100745.09
2023-04-18T03:30:21.920Z,100755.58
2023-04-18T03:31:21.849Z,100753.58
2023-04-18T03:32:21.809Z,100754.52
2023-04-18T03:33:21.766Z,100758
2023-04-18T03:34:21.860Z,100759.84
2023-04-18T03:35:21.831Z,100761.07
2023-04-18T03:36:21.870Z,100758.53
2023-04-18T03:37:21.936Z,100765.7
2023-04-18T03:38:21.953Z,100762.08
2023-04-18T03:39:21.940Z,100760.98
2023-04-18T03:40:22.100Z,100760.5
2023-04-18T03:41:21.977Z,100765.9
2023-04-18T03:42:21.912Z,100764.97
2023-04-18T03:43:21.926Z,100771.34
2023-04-18T03:44:21.955Z,100768.98
2023-04-18T03:45:21.982Z,100767.38
2023-04-18T03:46:22.181Z,100769.83
2023-04-18T03:47:22.041Z,100774.86
2023-04-18T03:48:22.024Z,100771.7
2023-04-18T03:49:22.022Z,100771.39
2023-04-18T03:50:22.131Z,100770.59
2023-04-18T03:51:22.034Z,100772.13
2023-04-18T03:52:22.125Z,100770.29
2023-04-18T03:53:22.056Z,100774.52
2023-04-18T03:54:22.099Z,100769.59
2023-04-18T03:55:22.176Z,100771.52
2023-04-18T03:56:22.173Z,100766.04
2023-04-18T03:57:22.223Z,100764.64
2023-04-18T03:58:23.188Z,100772.37
2023-04-18T03:59:22.237Z,100763.47
2023-04-18T04:00:22.198Z,100763.17
2023-04-18T04:01:22.211Z,100767.86
2023-04-18T04:02:22.327Z,100767.23
2023-04-18T04:03:22.420Z,100771.64
2023-04-18T04:04:22.316Z,100771.09
2023-04-18T04:05:22.278Z,100775.08
2023-04-18T04:06:22.499Z,100772.53
2023-04-18T04:07:22.432Z,100777.69
2023-04-18T04:08:22.489Z,100780.34
2023-04-18T04:09:22.394Z,100778.66
2023-04-18T04:10:22.527Z,100789.66
2023-04-18T04:11:22.745Z,100783.72
2023-04-18T04:12:22.403Z,100787.06
2023-04-18T04:13:22.496Z,100785.86
2023-04-18T04:14:22.509Z,100785.12
2023-04-18T04:15:22.501Z,100788.12
2023-04-18T04:16:22.539Z,100788.53
2023-04-18T04:17:22.581Z,100787.03
2023-04-18T04:18:22.590Z,100788.17
2023-04-18T04:19:22.605Z,100786.95
2023-04-18T04:20:22.575Z,100790.02
2023-04-18T04:21:22.602Z,100787.87
2023-04-18T04:22:22.633Z,100787.86
2023-04-18T04:23:22.758Z,100791.27
2023-04-18T04:24:22.707Z,100791.97
2023-04-18T04:25:22.850Z,100789.14
2023-04-18T04:26:22.780Z,100789.38
2023-04-18T04:27:22.610Z,100790.09
2023-04-18T04:28:22.990Z,100790.55
2023-04-18T04:29:22.974Z,100791.41
2023-04-18T04:30:22.711Z,100792.05
2023-04-18T04:31:22.812Z,100791.22
2023-04-18T04:32:22.779Z,100790.54
2023-04-18T04:33:23.231Z,100792.23
2023-04-18T04:34:22.775Z,100792.2
2023-04-18T04:35:22.790Z,100788.22
2023-04-18T04:36:23.218Z,100795.38
2023-04-18T04:37:22.859Z,100797.11
2023-04-18T04:38:22.880Z,100793.65
2023-04-18T04:39:22.924Z,100796.42
2023-04-18T04:40:22.978Z,100793.95
2023-04-18T04:41:22.866Z,100795.31
2023-04-18T04:42:23.003Z,100790.72
2023-04-18T04:43:22.976Z,100801.44
2023-04-18T04:44:22.978Z,100804.16
2023-04-18T04:45:23.036Z,100803.58
2023-04-18T04:46:23.344Z,100804
2023-04-18T04:47:22.962Z,100802.3
2023-04-18T04:48:23.201Z,100805.5
2023-04-18T04:49:22.968Z,100806.7
2023-04-18T04:50:23.138Z,100804.24
2023-04-18T04:51:23.258Z,100808.67
2023-04-18T04:52:23.087Z,100808.62
2023-04-18T04:53:23.775Z,100807.96
2023-04-18T04:54:23.180Z,100807.11
2023-04-18T04:55:23.112Z,100810.73
2023-04-18T04:56:23.397Z,100810.2
2023-04-18T04:57:23.137Z,100809.17
2023-04-18T04:58:23.153Z,100808.77
2023-04-18T04:59:32.013Z,100809.92
2023-04-18T05:00:24.398Z,100805.78
2023-04-18T05:01:24.386Z,100805.56
2023-04-18T05:02:24.498Z,100809.02
2023-04-18T05:03:24.425Z,100799.61
2023-04-18T05:04:24.479Z,100800.41
2023-04-18T05:05:24.322Z,100796.12
2023-04-18T05:06:24.601Z,100794.89
2023-04-18T05:07:24.404Z,100797.5
2023-04-18T05:08:24.400Z,100797.39
2023-04-18T05:09:24.395Z,100794.33
2023-04-18T05:10:24.414Z,100794.47
2023-04-18T05:11:24.356Z,100793.08
2023-04-18T05:12:24.434Z,100793.88
2023-04-18T05:13:24.436Z,100790.73
2023-04-18T05:14:24.536Z,100794.59
2023-04-18T05:15:24.608Z,100787.52
2023-04-18T05:16:24.574Z,100788.41
2023-04-18T05:17:24.548Z,100788.31
2023-04-18T05:18:24.519Z,100787.69
2023-04-18T05:19:24.512Z,100788.94
2023-04-18T05:20:24.664Z,100789.19
2023-04-18T05:21:24.469Z,100786.62
2023-04-18T05:22:24.494Z,100788.09
2023-04-18T05:23:24.738Z,100790.22
2023-04-18T05:24:24.650Z,100789.31
2023-04-18T05:25:24.761Z,100788.27
2023-04-18T05:26:24.696Z,100790.06
2023-04-18T05:27:24.668Z,100786.33
2023-04-18T05:28:25.330Z,100789.51
2023-04-18T05:29:24.763Z,100789.34
2023-04-18T05:30:24.656Z,100788.6
2023-04-18T05:31:24.746Z,100790.17
2023-04-18T05:32:24.730Z,100788.73
2023-04-18T05:33:24.713Z,100788.45
2023-04-18T05:34:24.850Z,100790.01
2023-04-18T05:35:24.959Z,100788.97
2023-04-18T05:36:24.815Z,100788.62
2023-04-18T05:37:24.717Z,100783.59
2023-04-18T05:38:24.861Z,100786.38
2023-04-18T05:39:24.739Z,100782.47
2023-04-18T05:40:25.177Z,100782.2
2023-04-18T05:41:24.918Z,100783.5
2023-04-18T05:42:24.851Z,100786.92
2023-04-18T05:43:24.814Z,100781.11
2023-04-18T05:44:24.896Z,100783.38
2023-04-18T05:45:24.831Z,100781.5
2023-04-18T05:46:24.983Z,100788.25
2023-04-18T05:47:24.855Z,100785.47
2023-04-18T05:48:24.877Z,100779.72
2023-04-18T05:49:24.868Z,100780.02
2023-04-18T05:50:25.038Z,100775.39
2023-04-18T05:51:24.965Z,100778.59
2023-04-18T05:52:25.055Z,100781.2
2023-04-18T05:53:24.955Z,100782.23
2023-04-18T05:54:24.978Z,100779.44
2023-04-18T05:55:24.959Z,100777.02
2023-04-18T05:56:25.007Z,100782.67
2023-04-18T05:57:25.166Z,100781.66
2023-04-18T05:58:25.044Z,100782.02
2023-04-18T05:59:25.017Z,100778.19
2023-04-18T06:00:25.072Z,100778.25
2023-04-18T06:01:25.205Z,100776.83
2023-04-18T06:02:25.270Z,100782.08
2023-04-18T06:03:25.320Z,100780.35
2023-04-18T06:04:25.365Z,100780.5
2023-04-18T06:05:25.451Z,100774.05
2023-04-18T06:06:25.412Z,100775.66
2023-04-18T06:07:25.198Z,100775.94
2023-04-18T06:08:25.158Z,100775.53
2023-04-18T06:09:25.217Z,100777.16
2023-04-18T06:10:25.200Z,100775.03
2023-04-18T06:11:25.192Z,100772.67
2023-04-18T06:12:25.271Z,100774
2023-04-18T06:13:25.198Z,100773.97
2023-04-18T06:14:25.228Z,100773.86
2023-04-18T06:15:25.230Z,100779.75
2023-04-18T06:16:25.355Z,100779.93
2023-04-18T06:17:25.244Z,100776.26
2023-04-18T06:18:25.279Z,100777.34
2023-04-18T06:19:25.476Z,100774.2
2023-04-18T06:20:25.308Z,100777.77
2023-04-18T06:21:25.442Z,100772.46
2023-04-18T06:22:25.398Z,100775.11
2023-04-18T06:23:25.380Z,100771.74
2023-04-18T06:24:25.376Z,100776.98
2023-04-18T06:25:25.490Z,100774.82
2023-04-18T06:26:25.580Z,100776.41
2023-04-18T06:27:31.067Z,100779.98
2023-04-18T06:28:28.528Z,100778.83
2023-04-18T06:29:28.500Z,100783.37
2023-04-18T06:30:28.509Z,100779.49
2023-04-18T06:31:28.853Z,100780.72
2023-04-18T06:32:28.532Z,100781.78
2023-04-18T06:33:28.581Z,100780.7
2023-04-18T06:34:28.575Z,100781.19
2023-04-18T06:35:30.664Z,100779.5
2023-04-18T06:36:28.646Z,100783.68
2023-04-18T06:37:28.782Z,100782.22
2023-04-18T06:38:28.686Z,100781.91
2023-04-18T06:39:28.674Z,100782.95
2023-04-18T06:40:28.670Z,100781.91
2023-04-18T06:41:28.678Z,100774.64
2023-04-18T06:42:28.754Z,100778.58
2023-04-18T06:43:28.703Z,100778.17
2023-04-18T06:44:28.742Z,100774.83
2023-04-18T06:45:30.116Z,100771.02
2023-04-18T06:46:28.866Z,100768.97
2023-04-18T06:47:29.172Z,100772.16
2023-04-18T06:48:28.740Z,100770.64
2023-04-18T06:49:28.802Z,100770.62
2023-04-18T06:50:29.105Z,100772.67
2023-04-18T06:51:28.866Z,100772.8
2023-04-18T06:52:28.918Z,100777.6
2023-04-18T06:53:29.002Z,100774.39
2023-04-18T06:54:28.931Z,100770.48
2023-04-18T06:55:28.882Z,100775.91
2023-04-18T06:56:28.961Z,100764.83
2023-04-18T06:57:29.050Z,100767.76
2023-04-18T06:58:28.978Z,100765.84
2023-04-18T06:59:28.961Z,100764.88
2023-04-18T07:00:29.026Z,100764.65
2023-04-18T07:01:31.171Z,100766.77
2023-04-18T07:02:28.984Z,100762.28
2023-04-18T07:03:29.114Z,100764.52
2023-04-18T07:04:29.058Z,100763.77
2023-04-18T07:05:29.201Z,100763.77
2023-04-18T07:06:29.012Z,100759.8
2023-04-18T07:07:29.156Z,100762.39
2023-04-18T07:08:29.075Z,100761.75
2023-04-18T07:09:29.288Z,100760.88
2023-04-18T07:10:29.373Z,100764.62
2023-04-18T07:11:29.295Z,100761.95
2023-04-18T07:12:29.162Z,100767.03
2023-04-18T07:13:29.239Z,100760.41
2023-04-18T07:14:29.100Z,100761.19
2023-04-18T07:15:29.212Z,100761.13
2023-04-18T07:16:29.178Z,100763.66
2023-04-18T07:17:29.225Z,100760.25
2023-04-18T07:18:37.493Z,100764.21
2023-04-18T07:19:29.963Z,100760.39
2023-04-18T07:20:30.061Z,100764.62
2023-04-18T07:21:30.000Z,100766.95
2023-04-18T07:22:30.069Z,100763.26
2023-04-18T07:23:30.077Z,100762.69
2023-04-18T07:24:30.115Z,100760.21
2023-04-18T07:25:30.262Z,100760.16
2023-04-18T07:26:30.114Z,100758.44
2023-04-18T07:27:30.054Z,100757.73
2023-04-18T07:28:30.907Z,100752.97
2023-04-18T07:29:30.112Z,100759.62
2023-04-18T07:30:30.156Z,100756.95
2023-04-18T07:31:30.465Z,100756.78
2023-04-18T07:32:30.253Z,100756.89
2023-04-18T07:33:30.156Z,100759.41
2023-04-18T07:34:30.216Z,100756.92
2023-04-18T07:35:30.176Z,100755.92
2023-04-18T07:36:30.286Z,100759.94
2023-04-18T07:37:30.328Z,100754.72
2023-04-18T07:38:30.242Z,100756.1
2023-04-18T07:39:30.252Z,100753.02
2023-04-18T07:40:30.261Z,100758.47
2023-04-18T07:41:30.736Z,100756.67
2023-04-18T07:42:30.867Z,100755.12
2023-04-18T07:43:30.422Z,100756.7
2023-04-18T07:44:30.407Z,100758.36
2023-04-18T07:45:30.703Z,100753.06
2023-04-18T07:46:30.866Z,100756.16
2023-04-18T07:47:32.204Z,100751.38
2023-04-18T07:48:30.613Z,100752.89
2023-04-18T07:49:30.369Z,100758.39
2023-04-18T07:50:30.384Z,100760.75
2023-04-18T07:51:30.703Z,100759.88
2023-04-18T07:52:31.282Z,100761.84
2023-04-18T07:53:30.491Z,100762.66
2023-04-18T07:54:30.488Z,100765.58
2023-04-18T07:55:30.406Z,100757.58
2023-04-18T07:56:30.443Z,100755.69
2023-04-18T07:57:30.485Z,100758.02
2023-04-18T07:58:30.636Z,100754.4
2023-04-18T07:59:30.773Z,100754.72
2023-04-18T08:00:30.603Z,100752.57
2023-04-18T08:01:30.541Z,100751.94
2023-04-18T08:02:30.690Z,100750.87
2023-04-18T08:03:30.844Z,100753.66
2023-04-18T08:04:30.813Z,100749.05
2023-04-18T08:05:30.769Z,100753.13
2023-04-18T08:06:30.663Z,100750.2
2023-04-18T08:07:30.678Z,100745.66
2023-04-18T08:08:30.614Z,100744.6
2023-04-18T08:09:30.674Z,100747.5
2023-04-18T08:10:30.828Z,100750.06
2023-04-18T08:11:30.928Z,100746.09
2023-04-18T08:12:30.722Z,100741.98
2023-04-18T08:13:30.756Z,100745.73
2023-04-18T08:14:30.700Z,100742.75
2023-04-18T08:15:30.726Z,100748.27
2023-04-18T08:16:30.728Z,100742.21
2023-04-18T08:17:31.162Z,100744.29
2023-04-18T08:18:30.816Z,100743.53
2023-04-18T08:19:30.800Z,100740.16
2023-04-18T08:20:30.871Z,100738.77
2023-04-18T08:21:31.096Z,100737.83
2023-04-18T08:22:31.053Z,100736.16
2023-04-18T08:23:30.959Z,100735
2023-04-18T08:24:30.831Z,100728.88
2023-04-18T08:25:31.317Z,100736.25
2023-04-18T08:26:30.834Z,100728.18
2023-04-18T08:27:31.025Z,100729.3
2023-04-18T08:28:31.176Z,100732.43
2023-04-18T08:29:31.040Z,100732.27
2023-04-18T08:30:30.977Z,100730.51
2023-04-18T08:31:31.039Z,100726.31
2023-04-18T08:32:31.633Z,100727.7
2023-04-18T08:33:30.938Z,100721.89
2023-04-18T08:34:32.950Z,100722.09
2023-04-18T08:35:31.084Z,100719.84
2023-04-18T08:36:31.037Z,100726.34
2023-04-18T08:37:32.090Z,100718.61
2023-04-18T08:38:31.086Z,100717.42
2023-04-18T08:39:31.065Z,100722.17
2023-04-18T08:40:31.193Z,100719.47
2023-04-18T08:41:35.717Z,100715.56
2023-04-18T08:42:32.639Z,100712.45
2023-04-18T08:43:32.556Z,100707.23
2023-04-18T08:44:33.806Z,100708.08
2023-04-18T08:45:32.993Z,100704.03
2023-04-18T08:46:33.628Z,100706.34
2023-04-18T08:47:34.622Z,100705.19
2023-04-18T08:48:33.162Z,100712.61
2023-04-18T08:49:33.255Z,100710.19
2023-04-18T08:50:33.471Z,100713.03
2023-04-18T08:51:33.514Z,100709.62
2023-04-18T08:52:35.057Z,100713.74
2023-04-18T08:53:33.855Z,100712.03
2023-04-18T08:54:33.291Z,100709
2023-04-18T08:55:33.224Z,100706.12
2023-04-18T08:56:33.288Z,100702.14
2023-04-18T08:57:35.361Z,100700.5
2023-04-18T08:58:33.126Z,100701.3
2023-04-18T08:59:33.166Z,100703.47
2023-04-18T09:00:33.325Z,100703.83
2023-04-18T09:02:39.232Z,100699.7
2023-04-18T09:03:41.342Z,100698.86
2023-04-18T09:04:47.201Z,100700.97
2023-04-18T09:05:38.877Z,100704.4
2023-04-18T09:06:50.923Z,100706.29
2023-04-18T09:07:42.638Z,100702.64
2023-04-18T09:08:43.074Z,100704.98
2023-04-18T09:09:46.564Z,100703.25
2023-04-18T09:10:44.807Z,100705.95
2023-04-18T09:11:45.481Z,100702.82
2023-04-18T09:12:45.169Z,100696.98
2023-04-18T09:13:43.316Z,100696.54
2023-04-18T09:14:44.648Z,100689.48
2023-04-18T09:15:53.779Z,100692.47
2023-04-18T09:16:45.899Z,100691.95
2023-04-18T09:17:47.029Z,100686.75
2023-04-18T09:19:48.795Z,100683.69
2023-04-18T09:20:48.177Z,100685.64
2023-04-18T09:22:53.805Z,100684.07
2023-04-18T09:24:54.461Z,100684.91
2023-04-18T09:25:53.945Z,100690.47
2023-04-18T09:26:54.333Z,100685.07
2023-04-18T09:27:53.722Z,100684.46
2023-04-18T09:28:54.063Z,100680.61
2023-04-18T09:29:54.663Z,100685.36
2023-04-18T09:30:54.326Z,100687.67
2023-04-18T09:32:02.621Z,100683.7
2023-04-18T09:32:57.317Z,100681.35
2023-04-18T09:33:54.701Z,100680.36
2023-04-18T09:34:58.203Z,100681.84
2023-04-18T09:35:55.642Z,100680.23
2023-04-18T09:37:07.582Z,100678.95
2023-04-18T09:38:00.228Z,100676.77
2023-04-18T09:39:00.165Z,100678.61
2023-04-18T09:39:59.422Z,100674.67
2023-04-18T09:41:08.448Z,100673.59
2023-04-18T09:42:01.104Z,100673.4
2023-04-18T09:43:00.303Z,100659.59
2023-04-18T09:44:13.209Z,100666.87
2023-04-18T09:45:07.868Z,100666.33
2023-04-18T09:46:05.026Z,100666.53
2023-04-18T09:47:05.826Z,100665
2023-04-18T09:48:04.879Z,100660.91
2023-04-18T09:49:04.696Z,100662.02
2023-04-18T09:50:08.192Z,100664.79
2023-04-18T09:51:06.277Z,100660.27
2023-04-18T09:52:06.182Z,100665.61
2023-04-18T09:53:05.632Z,100667.09
2023-04-18T09:54:05.314Z,100668.21
2023-04-18T09:55:08.863Z,100661.96
2023-04-18T09:56:06.990Z,100662.41
2023-04-18T09:57:09.727Z,100660.77
2023-04-18T09:58:07.172Z,100661.77
2023-04-18T09:59:07.788Z,100667.75
2023-04-18T10:00:11.061Z,100660.69
2023-04-18T10:01:07.884Z,100665.17
2023-04-18T10:02:14.997Z,100663.02
2023-04-18T10:03:14.057Z,100662.36
2023-04-18T10:04:11.956Z,100662.77
2023-04-18T10:05:13.655Z,100661.48
2023-04-18T10:06:15.088Z,100660.42
2023-04-18T10:07:11.876Z,100663.55
2023-04-18T10:08:13.116Z,100661.61
2023-04-18T10:09:12.552Z,100655.38
2023-04-18T10:10:12.217Z,100651.53
2023-04-18T10:11:13.607Z,100651.5
2023-04-18T10:12:12.350Z,100652.61
2023-04-18T10:13:13.721Z,100654.25
2023-04-18T10:14:13.581Z,100650.29
2023-04-18T10:15:15.033Z,100648.55
2023-04-18T10:16:12.032Z,100643.94
2023-04-18T10:17:13.853Z,100642.22
2023-04-18T10:18:15.354Z,100644.16
2023-04-18T10:19:22.538Z,100645.98
2023-04-18T10:20:17.942Z,100649.14
2023-04-18T10:21:14.675Z,100644.71
2023-04-18T10:22:14.700Z,100640.09
2023-04-18T10:30:48.419Z,100643.16
2023-04-18T10:31:40.096Z,100635.45
2023-04-18T10:32:40.253Z,100640.59
2023-04-18T10:33:42.467Z,100639.41
2023-04-18T10:34:40.670Z,100632.03
2023-04-18T10:38:49.400Z,100635.47
2023-04-18T10:40:47.743Z,100631.16
2023-04-18T10:41:49.414Z,100629.71
2023-04-18T10:49:19.383Z,100616.96
2023-04-18T10:50:11.280Z,100616.05
2023-04-18T10:51:15.376Z,100624.5
2023-04-18T10:52:13.499Z,100623.41
2023-04-18T10:53:12.265Z,100623
2023-04-18T10:55:14.910Z,100625.3
2023-04-18T10:56:12.673Z,100625.12
2023-04-18T10:57:12.389Z,100618.96
2023-04-18T10:58:15.170Z,100617.72
2023-04-18T10:59:12.667Z,100616.51
2023-04-18T11:00:13.918Z,100621.39
2023-04-18T11:01:14.180Z,100611.79
2023-04-18T11:02:22.956Z,100612.95
2023-04-18T11:03:15.097Z,100611.02
2023-04-18T11:04:15.631Z,100611.01
2023-04-18T11:05:18.652Z,100612.09
2023-04-18T11:06:15.507Z,100613.3
2023-04-18T11:07:15.352Z,100610.81
2023-04-18T11:08:24.255Z,100612.58
2023-04-18T11:09:17.522Z,100613.62
2023-04-18T11:10:17.376Z,100610.19
2023-04-18T11:11:16.137Z,100613.37
2023-04-18T11:12:16.016Z,100608.08
2023-04-18T11:13:15.956Z,100612.34
2023-04-18T11:14:16.369Z,100610.57
2023-04-18T11:15:20.582Z,100608.89
2023-04-18T11:16:26.883Z,100606.52
2023-04-18T11:17:22.707Z,100608.81
2023-04-18T11:18:19.534Z,100610.02
2023-04-18T11:19:20.381Z,100610.81
2023-04-18T11:20:19.898Z,100610.16
2023-04-18T11:21:19.716Z,100617.19
2023-04-18T11:22:19.575Z,100611.5
2023-04-18T11:23:20.436Z,100614.53
2023-04-18T11:24:23.363Z,100618.17
2023-04-18T11:25:20.978Z,100613.38
2023-04-18T11:26:20.310Z,100616.69
2023-04-18T11:27:24.450Z,100617.7
2023-04-18T11:28:22.030Z,100615.27
2023-04-18T11:29:21.233Z,100617.71
2023-04-18T11:30:21.484Z,100615.3
2023-04-18T11:31:24.592Z,100618.12
2023-04-18T11:32:22.011Z,100612.34
2023-04-18T11:33:21.417Z,100615.6
2023-04-18T11:34:21.644Z,100606.2
2023-04-18T11:35:21.425Z,100618.79
2023-04-18T11:36:21.452Z,100609.64
2023-04-18T11:37:21.558Z,100612.66
2023-04-18T11:38:27.386Z,100618.02
2023-04-18T11:39:24.205Z,100612.19
2023-04-18T11:40:24.439Z,100615.92
2023-04-18T11:41:24.273Z,100612.5
2023-04-18T11:42:27.677Z,100609.12
2023-04-18T11:43:24.779Z,100610.58
2023-04-18T11:44:24.390Z,100614.81
2023-04-18T11:45:24.458Z,100608.52
2023-04-18T11:46:37.005Z,100610.98
2023-04-18T11:47:32.946Z,100610.21
2023-04-18T11:48:38.871Z,100611.2
2023-04-18T11:49:31.630Z,100612.23
2023-04-18T11:50:35.266Z,100608.44
2023-04-18T11:51:33.224Z,100602.88